sensor_id;sensor_type;location;lat;lon;timestamp;P1;durP1;ratioP1;P2;durP2;ratioP2
16822;SDS011;8528;49.976;11.858;2023-07-13T00:01:53;3.03;;;2.00;;
16822;SDS011;8528;49.976;11.858;2023-07-13T00:04:21;2.50;;;2.30;;
16822;SDS011;8528;49.976;11.858;2023-07-13T00:06:51;3.93;;;2.10;;
16822;SDS011;8528;49.976;11.858;2023-07-13T00:09:19;2.03;;;1.90;;
16822;SDS011;8528;49.976;11.858;2023-07-13T00:11:49;3.50;;;2.40;;
16822;SDS011;8528;49.976;11.858;2023-07-13T00:14:21;2.20;;;2.00;;
16822;SDS011;8528;49.976;11.858;2023-07-13T00:16:49;2.23;;;1.90;;
16822;SDS011;8528;49.976;11.858;2023-07-13T00:19:16;4.80;;;2.40;;
16822;SDS011;8528;49.976;11.858;2023-07-13T00:21:46;2.40;;;2.07;;
16822;SDS011;8528;49.976;11.858;2023-07-13T00:24:17;2.30;;;1.80;;
16822;SDS011;8528;49.976;11.858;2023-07-13T00:26:50;3.03;;;2.10;;
16822;SDS011;8528;49.976;11.858;2023-07-13T00:29:17;3.43;;;2.20;;
16822;SDS011;8528;49.976;11.858;2023-07-13T00:31:44;2.27;;;2.07;;
16822;SDS011;8528;49.976;11.858;2023-07-13T00:34:12;2.53;;;2.10;;
16822;SDS011;8528;49.976;11.858;2023-07-13T00:36:39;2.30;;;2.10;;
16822;SDS011;8528;49.976;11.858;2023-07-13T00:39:06;3.47;;;2.50;;
16822;SDS011;8528;49.976;11.858;2023-07-13T00:41:32;2.57;;;2.37;;
16822;SDS011;8528;49.976;11.858;2023-07-13T00:43:59;4.83;;;2.33;;
16822;SDS011;8528;49.976;11.858;2023-07-13T00:46:28;3.70;;;2.43;;
16822;SDS011;8528;49.976;11.858;2023-07-13T00:48:59;2.40;;;2.20;;
16822;SDS011;8528;49.976;11.858;2023-07-13T00:51:30;3.33;;;2.27;;
16822;SDS011;8528;49.976;11.858;2023-07-13T00:54:02;2.40;;;2.20;;
16822;SDS011;8528;49.976;11.858;2023-07-13T00:56:31;3.03;;;2.40;;
16822;SDS011;8528;49.976;11.858;2023-07-13T00:59:00;2.60;;;2.10;;
16822;SDS011;8528;49.976;11.858;2023-07-13T01:01:29;2.77;;;2.20;;
16822;SDS011;8528;49.976;11.858;2023-07-13T01:03:56;2.63;;;2.33;;
16822;SDS011;8528;49.976;11.858;2023-07-13T01:06:23;2.73;;;2.20;;
16822;SDS011;8528;49.976;11.858;2023-07-13T01:08:50;3.07;;;2.00;;
16822;SDS011;8528;49.976;11.858;2023-07-13T01:11:21;3.83;;;2.60;;
16822;SDS011;8528;49.976;11.858;2023-07-13T01:13:48;4.57;;;2.40;;
16822;SDS011;8528;49.976;11.858;2023-07-13T01:16:22;3.30;;;2.10;;
16822;SDS011;8528;49.976;11.858;2023-07-13T01:18:53;3.23;;;2.50;;
16822;SDS011;8528;49.976;11.858;2023-07-13T01:21:25;2.80;;;2.50;;
16822;SDS011;8528;49.976;11.858;2023-07-13T01:23:52;4.37;;;2.77;;
16822;SDS011;8528;49.976;11.858;2023-07-13T01:26:19;2.90;;;2.40;;
16822;SDS011;8528;49.976;11.858;2023-07-13T01:28:46;2.67;;;2.47;;
16822;SDS011;8528;49.976;11.858;2023-07-13T01:31:13;3.63;;;2.20;;
16822;SDS011;8528;49.976;11.858;2023-07-13T01:33:40;2.40;;;2.20;;
16822;SDS011;8528;49.976;11.858;2023-07-13T01:36:07;3.03;;;2.67;;
16822;SDS011;8528;49.976;11.858;2023-07-13T01:38:36;4.93;;;2.47;;
16822;SDS011;8528;49.976;11.858;2023-07-13T01:41:03;2.73;;;2.40;;
16822;SDS011;8528;49.976;11.858;2023-07-13T01:43:30;2.73;;;2.53;;
16822;SDS011;8528;49.976;11.858;2023-07-13T01:45:56;2.87;;;2.37;;
16822;SDS011;8528;49.976;11.858;2023-07-13T01:48:43;3.20;;;2.40;;
16822;SDS011;8528;49.976;11.858;2023-07-13T01:51:10;2.70;;;2.50;;
16822;SDS011;8528;49.976;11.858;2023-07-13T01:53:37;4.10;;;2.83;;
16822;SDS011;8528;49.976;11.858;2023-07-13T01:56:04;3.03;;;2.33;;
16822;SDS011;8528;49.976;11.858;2023-07-13T01:58:31;3.73;;;2.53;;
16822;SDS011;8528;49.976;11.858;2023-07-13T02:00:57;2.70;;;2.50;;
16822;SDS011;8528;49.976;11.858;2023-07-13T02:03:24;2.50;;;2.30;;
16822;SDS011;8528;49.976;11.858;2023-07-13T02:05:51;3.30;;;2.73;;
16822;SDS011;8528;49.976;11.858;2023-07-13T02:08:18;2.70;;;2.27;;
16822;SDS011;8528;49.976;11.858;2023-07-13T02:10:45;2.47;;;2.27;;
16822;SDS011;8528;49.976;11.858;2023-07-13T02:13:12;4.23;;;2.50;;
16822;SDS011;8528;49.976;11.858;2023-07-13T02:15:39;2.77;;;2.57;;
16822;SDS011;8528;49.976;11.858;2023-07-13T02:18:08;3.97;;;2.73;;
16822;SDS011;8528;49.976;11.858;2023-07-13T02:20:35;2.33;;;2.13;;
16822;SDS011;8528;49.976;11.858;2023-07-13T02:23:02;2.57;;;2.37;;
16822;SDS011;8528;49.976;11.858;2023-07-13T02:25:32;2.40;;;2.20;;
16822;SDS011;8528;49.976;11.858;2023-07-13T02:27:59;3.00;;;2.70;;
16822;SDS011;8528;49.976;11.858;2023-07-13T02:30:26;2.53;;;2.33;;
16822;SDS011;8528;49.976;11.858;2023-07-13T02:32:56;2.33;;;2.13;;
16822;SDS011;8528;49.976;11.858;2023-07-13T02:35:23;3.20;;;2.40;;
16822;SDS011;8528;49.976;11.858;2023-07-13T02:37:50;3.07;;;2.77;;
16822;SDS011;8528;49.976;11.858;2023-07-13T02:40:17;3.63;;;2.53;;
16822;SDS011;8528;49.976;11.858;2023-07-13T02:42:44;2.47;;;2.20;;
16822;SDS011;8528;49.976;11.858;2023-07-13T02:45:11;3.93;;;2.43;;
16822;SDS011;8528;49.976;11.858;2023-07-13T02:47:40;3.17;;;2.50;;
16822;SDS011;8528;49.976;11.858;2023-07-13T02:50:08;3.90;;;2.57;;
16822;SDS011;8528;49.976;11.858;2023-07-13T02:52:36;2.90;;;2.60;;
16822;SDS011;8528;49.976;11.858;2023-07-13T02:55:03;3.40;;;2.30;;
16822;SDS011;8528;49.976;11.858;2023-07-13T02:57:30;2.50;;;2.30;;
16822;SDS011;8528;49.976;11.858;2023-07-13T02:59:59;2.57;;;2.20;;
16822;SDS011;8528;49.976;11.858;2023-07-13T03:02:27;3.93;;;2.50;;
16822;SDS011;8528;49.976;11.858;2023-07-13T03:04:55;3.90;;;2.60;;
16822;SDS011;8528;49.976;11.858;2023-07-13T03:07:22;2.87;;;2.27;;
16822;SDS011;8528;49.976;11.858;2023-07-13T03:09:49;2.67;;;2.47;;
16822;SDS011;8528;49.976;11.858;2023-07-13T03:12:21;3.17;;;2.50;;
16822;SDS011;8528;49.976;11.858;2023-07-13T03:14:48;3.43;;;2.67;;
16822;SDS011;8528;49.976;11.858;2023-07-13T03:17:16;3.53;;;2.20;;
16822;SDS011;8528;49.976;11.858;2023-07-13T03:19:43;2.43;;;2.13;;
16822;SDS011;8528;49.976;11.858;2023-07-13T03:22:10;2.57;;;2.30;;
16822;SDS011;8528;49.976;11.858;2023-07-13T03:24:37;2.20;;;2.00;;
16822;SDS011;8528;49.976;11.858;2023-07-13T03:27:05;2.30;;;2.10;;
16822;SDS011;8528;49.976;11.858;2023-07-13T03:29:32;2.63;;;2.43;;
16822;SDS011;8528;49.976;11.858;2023-07-13T03:31:59;2.40;;;2.20;;
16822;SDS011;8528;49.976;11.858;2023-07-13T03:34:26;3.73;;;2.27;;
16822;SDS011;8528;49.976;11.858;2023-07-13T03:36:56;2.43;;;2.23;;
16822;SDS011;8528;49.976;11.858;2023-07-13T03:39:22;3.83;;;2.43;;
16822;SDS011;8528;49.976;11.858;2023-07-13T03:41:49;3.30;;;3.00;;
16822;SDS011;8528;49.976;11.858;2023-07-13T03:44:16;3.30;;;2.63;;
16822;SDS011;8528;49.976;11.858;2023-07-13T03:46:43;3.50;;;2.73;;
16822;SDS011;8528;49.976;11.858;2023-07-13T03:49:11;3.07;;;2.77;;
16822;SDS011;8528;49.976;11.858;2023-07-13T03:51:38;2.43;;;2.23;;
16822;SDS011;8528;49.976;11.858;2023-07-13T03:54:05;3.17;;;2.60;;
16822;SDS011;8528;49.976;11.858;2023-07-13T03:56:32;2.73;;;2.47;;
16822;SDS011;8528;49.976;11.858;2023-07-13T03:59:00;2.57;;;2.20;;
16822;SDS011;8528;49.976;11.858;2023-07-13T04:01:27;2.40;;;2.20;;
16822;SDS011;8528;49.976;11.858;2023-07-13T04:03:54;3.30;;;2.30;;
16822;SDS011;8528;49.976;11.858;2023-07-13T04:06:22;2.90;;;2.60;;
16822;SDS011;8528;49.976;11.858;2023-07-13T04:08:53;2.70;;;2.50;;
16822;SDS011;8528;49.976;11.858;2023-07-13T04:11:24;2.60;;;2.40;;
16822;SDS011;8528;49.976;11.858;2023-07-13T04:13:54;3.87;;;2.60;;
16822;SDS011;8528;49.976;11.858;2023-07-13T04:16:21;4.20;;;2.90;;
16822;SDS011;8528;49.976;11.858;2023-07-13T04:18:48;2.63;;;2.43;;
16822;SDS011;8528;49.976;11.858;2023-07-13T04:21:16;3.50;;;2.27;;
16822;SDS011;8528;49.976;11.858;2023-07-13T04:23:43;4.30;;;2.40;;
16822;SDS011;8528;49.976;11.858;2023-07-13T04:26:10;4.33;;;2.40;;
16822;SDS011;8528;49.976;11.858;2023-07-13T04:28:38;3.53;;;2.30;;
16822;SDS011;8528;49.976;11.858;2023-07-13T04:31:05;4.33;;;1.90;;
16822;SDS011;8528;49.976;11.858;2023-07-13T04:33:32;2.60;;;2.00;;
16822;SDS011;8528;49.976;11.858;2023-07-13T04:35:59;3.17;;;1.80;;
16822;SDS011;8528;49.976;11.858;2023-07-13T04:38:27;3.00;;;2.17;;
16822;SDS011;8528;49.976;11.858;2023-07-13T04:40:55;2.30;;;1.80;;
16822;SDS011;8528;49.976;11.858;2023-07-13T04:43:24;3.17;;;2.50;;
16822;SDS011;8528;49.976;11.858;2023-07-13T04:45:52;2.23;;;2.03;;
16822;SDS011;8528;49.976;11.858;2023-07-13T04:48:20;2.47;;;2.17;;
16822;SDS011;8528;49.976;11.858;2023-07-13T04:50:53;2.50;;;2.20;;
16822;SDS011;8528;49.976;11.858;2023-07-13T04:53:22;3.30;;;2.60;;
16822;SDS011;8528;49.976;11.858;2023-07-13T04:55:49;5.10;;;2.60;;
16822;SDS011;8528;49.976;11.858;2023-07-13T04:58:16;3.87;;;2.40;;
16822;SDS011;8528;49.976;11.858;2023-07-13T05:00:43;2.63;;;2.30;;
16822;SDS011;8528;49.976;11.858;2023-07-13T05:03:11;4.33;;;2.03;;
16822;SDS011;8528;49.976;11.858;2023-07-13T05:05:38;4.17;;;2.00;;
16822;SDS011;8528;49.976;11.858;2023-07-13T05:08:05;3.00;;;1.80;;
16822;SDS011;8528;49.976;11.858;2023-07-13T05:10:33;2.77;;;1.90;;
16822;SDS011;8528;49.976;11.858;2023-07-13T05:13:01;2.57;;;1.80;;
16822;SDS011;8528;49.976;11.858;2023-07-13T05:15:29;1.73;;;1.63;;
16822;SDS011;8528;49.976;11.858;2023-07-13T05:17:56;2.33;;;1.83;;
16822;SDS011;8528;49.976;11.858;2023-07-13T05:20:23;2.30;;;1.93;;
16822;SDS011;8528;49.976;11.858;2023-07-13T05:22:50;2.73;;;2.20;;
16822;SDS011;8528;49.976;11.858;2023-07-13T05:25:17;2.90;;;2.17;;
16822;SDS011;8528;49.976;11.858;2023-07-13T05:27:44;3.20;;;1.70;;
16822;SDS011;8528;49.976;11.858;2023-07-13T05:30:12;3.33;;;1.93;;
16822;SDS011;8528;49.976;11.858;2023-07-13T05:32:40;3.08;;;1.90;;
16822;SDS011;8528;49.976;11.858;2023-07-13T05:35:07;1.73;;;1.60;;
16822;SDS011;8528;49.976;11.858;2023-07-13T05:37:37;4.30;;;1.60;;
16822;SDS011;8528;49.976;11.858;2023-07-13T05:40:04;1.48;;;1.35;;
16822;SDS011;8528;49.976;11.858;2023-07-13T05:42:31;1.75;;;1.50;;
16822;SDS011;8528;49.976;11.858;2023-07-13T05:44:58;2.95;;;1.50;;
16822;SDS011;8528;49.976;11.858;2023-07-13T05:47:25;1.67;;;1.58;;
16822;SDS011;8528;49.976;11.858;2023-07-13T05:49:53;3.08;;;1.50;;
16822;SDS011;8528;49.976;11.858;2023-07-13T05:52:20;2.42;;;1.70;;
16822;SDS011;8528;49.976;11.858;2023-07-13T05:54:47;1.50;;;1.35;;
16822;SDS011;8528;49.976;11.858;2023-07-13T05:57:14;2.60;;;1.42;;
16822;SDS011;8528;49.976;11.858;2023-07-13T05:59:42;1.85;;;1.40;;
16822;SDS011;8528;49.976;11.858;2023-07-13T06:02:09;2.60;;;1.33;;
16822;SDS011;8528;49.976;11.858;2023-07-13T06:04:37;2.45;;;1.40;;
16822;SDS011;8528;49.976;11.858;2023-07-13T06:07:04;1.70;;;1.35;;
16822;SDS011;8528;49.976;11.858;2023-07-13T06:09:31;1.95;;;1.30;;
16822;SDS011;8528;49.976;11.858;2023-07-13T06:11:59;1.80;;;1.58;;
16822;SDS011;8528;49.976;11.858;2023-07-13T06:14:26;1.40;;;1.30;;
16822;SDS011;8528;49.976;11.858;2023-07-13T06:16:53;1.85;;;1.58;;
16822;SDS011;8528;49.976;11.858;2023-07-13T06:19:21;1.40;;;1.30;;
16822;SDS011;8528;49.976;11.858;2023-07-13T06:21:48;2.40;;;1.20;;
16822;SDS011;8528;49.976;11.858;2023-07-13T06:24:15;3.05;;;1.48;;
16822;SDS011;8528;49.976;11.858;2023-07-13T06:26:42;3.67;;;1.35;;
16822;SDS011;8528;49.976;11.858;2023-07-13T06:29:10;2.40;;;1.30;;
16822;SDS011;8528;49.976;11.858;2023-07-13T06:31:37;2.22;;;1.40;;
16822;SDS011;8528;49.976;11.858;2023-07-13T06:34:04;2.22;;;1.33;;
16822;SDS011;8528;49.976;11.858;2023-07-13T06:36:31;3.05;;;1.52;;
16822;SDS011;8528;49.976;11.858;2023-07-13T06:38:58;5.00;;;1.48;;
16822;SDS011;8528;49.976;11.858;2023-07-13T06:41:25;3.60;;;1.42;;
16822;SDS011;8528;49.976;11.858;2023-07-13T06:43:52;2.22;;;1.30;;
16822;SDS011;8528;49.976;11.858;2023-07-13T06:46:21;3.22;;;1.83;;
16822;SDS011;8528;49.976;11.858;2023-07-13T06:48:48;2.08;;;1.30;;
16822;SDS011;8528;49.976;11.858;2023-07-13T06:51:15;1.90;;;1.45;;
16822;SDS011;8528;49.976;11.858;2023-07-13T06:53:43;3.65;;;1.70;;
16822;SDS011;8528;49.976;11.858;2023-07-13T06:56:10;1.73;;;1.30;;
16822;SDS011;8528;49.976;11.858;2023-07-13T06:58:37;2.53;;;1.50;;
16822;SDS011;8528;49.976;11.858;2023-07-13T07:01:04;2.50;;;1.60;;
16822;SDS011;8528;49.976;11.858;2023-07-13T07:03:49;3.58;;;1.58;;
16822;SDS011;8528;49.976;11.858;2023-07-13T07:06:45;2.00;;;1.55;;
16822;SDS011;8528;49.976;11.858;2023-07-13T07:09:12;3.05;;;1.50;;
16822;SDS011;8528;49.976;11.858;2023-07-13T07:11:39;2.20;;;1.50;;
16822;SDS011;8528;49.976;11.858;2023-07-13T07:14:26;3.05;;;1.70;;
16822;SDS011;8528;49.976;11.858;2023-07-13T07:16:53;3.08;;;1.70;;
16822;SDS011;8528;49.976;11.858;2023-07-13T07:19:20;2.63;;;1.40;;
16822;SDS011;8528;49.976;11.858;2023-07-13T07:21:47;1.95;;;1.33;;
16822;SDS011;8528;49.976;11.858;2023-07-13T07:24:14;3.22;;;1.25;;
16822;SDS011;8528;49.976;11.858;2023-07-13T07:26:41;2.75;;;1.50;;
16822;SDS011;8528;49.976;11.858;2023-07-13T07:29:11;2.08;;;1.30;;
16822;SDS011;8528;49.976;11.858;2023-07-13T07:31:41;4.10;;;1.63;;
16822;SDS011;8528;49.976;11.858;2023-07-13T07:34:11;2.45;;;1.50;;
16822;SDS011;8528;49.976;11.858;2023-07-13T07:36:38;4.22;;;1.70;;
16822;SDS011;8528;49.976;11.858;2023-07-13T07:39:07;1.63;;;1.48;;
16822;SDS011;8528;49.976;11.858;2023-07-13T07:41:34;1.85;;;1.50;;
16822;SDS011;8528;49.976;11.858;2023-07-13T07:44:04;3.03;;;1.50;;
16822;SDS011;8528;49.976;11.858;2023-07-13T07:46:33;2.65;;;1.42;;
16822;SDS011;8528;49.976;11.858;2023-07-13T07:49:00;4.47;;;1.58;;
16822;SDS011;8528;49.976;11.858;2023-07-13T07:51:28;3.92;;;1.38;;
16822;SDS011;8528;49.976;11.858;2023-07-13T07:53:55;3.17;;;1.40;;
16822;SDS011;8528;49.976;11.858;2023-07-13T07:56:22;2.45;;;1.60;;
16822;SDS011;8528;49.976;11.858;2023-07-13T07:58:52;1.92;;;1.55;;
16822;SDS011;8528;49.976;11.858;2023-07-13T08:01:21;3.05;;;1.90;;
16822;SDS011;8528;49.976;11.858;2023-07-13T08:03:52;2.55;;;1.80;;
16822;SDS011;8528;49.976;11.858;2023-07-13T08:06:23;1.75;;;1.45;;
16822;SDS011;8528;49.976;11.858;2023-07-13T08:08:53;2.15;;;1.70;;
16822;SDS011;8528;49.976;11.858;2023-07-13T08:11:21;2.50;;;1.50;;
16822;SDS011;8528;49.976;11.858;2023-07-13T08:13:52;3.50;;;1.60;;
16822;SDS011;8528;49.976;11.858;2023-07-13T08:16:21;2.03;;;1.42;;
16822;SDS011;8528;49.976;11.858;2023-07-13T08:18:49;3.15;;;1.40;;
16822;SDS011;8528;49.976;11.858;2023-07-13T08:24:11;1.70;;;1.20;;
16822;SDS011;8528;49.976;11.858;2023-07-13T08:26:37;2.75;;;1.30;;
16822;SDS011;8528;49.976;11.858;2023-07-13T08:29:05;2.17;;;1.50;;
16822;SDS011;8528;49.976;11.858;2023-07-13T08:31:32;2.08;;;1.42;;
16822;SDS011;8528;49.976;11.858;2023-07-13T08:33:59;2.47;;;1.30;;
16822;SDS011;8528;49.976;11.858;2023-07-13T08:36:26;2.72;;;1.30;;
16822;SDS011;8528;49.976;11.858;2023-07-13T08:38:54;4.28;;;1.40;;
16822;SDS011;8528;49.976;11.858;2023-07-13T08:41:21;2.70;;;1.40;;
16822;SDS011;8528;49.976;11.858;2023-07-13T08:43:50;2.85;;;1.30;;
16822;SDS011;8528;49.976;11.858;2023-07-13T08:46:24;2.47;;;1.40;;
16822;SDS011;8528;49.976;11.858;2023-07-13T08:48:59;2.83;;;1.20;;
16822;SDS011;8528;49.976;11.858;2023-07-13T08:51:42;3.08;;;1.48;;
16822;SDS011;8528;49.976;11.858;2023-07-13T08:56:48;3.58;;;1.33;;
16822;SDS011;8528;49.976;11.858;2023-07-13T08:59:20;2.45;;;1.63;;
16822;SDS011;8528;49.976;11.858;2023-07-13T09:01:58;2.10;;;1.30;;
16822;SDS011;8528;49.976;11.858;2023-07-13T09:04:41;1.92;;;1.30;;
16822;SDS011;8528;49.976;11.858;2023-07-13T09:09:55;3.08;;;1.98;;
16822;SDS011;8528;49.976;11.858;2023-07-13T09:15:29;2.55;;;1.58;;
16822;SDS011;8528;49.976;11.858;2023-07-13T09:18:12;4.13;;;1.75;;
16822;SDS011;8528;49.976;11.858;2023-07-13T09:21:43;1.75;;;1.20;;
16822;SDS011;8528;49.976;11.858;2023-07-13T09:23:56;2.17;;;1.35;;
16822;SDS011;8528;49.976;11.858;2023-07-13T09:26:28;2.40;;;1.38;;
16822;SDS011;8528;49.976;11.858;2023-07-13T09:29:03;4.90;;;1.60;;
16822;SDS011;8528;49.976;11.858;2023-07-13T09:31:40;6.18;;;1.40;;
16822;SDS011;8528;49.976;11.858;2023-07-13T09:34:12;3.05;;;1.52;;
16822;SDS011;8528;49.976;11.858;2023-07-13T09:36:42;3.03;;;1.55;;
16822;SDS011;8528;49.976;11.858;2023-07-13T09:39:14;1.45;;;1.35;;
16822;SDS011;8528;49.976;11.858;2023-07-13T09:47:00;4.10;;;1.48;;
16822;SDS011;8528;49.976;11.858;2023-07-13T09:53:16;1.60;;;1.30;;
16822;SDS011;8528;49.976;11.858;2023-07-13T09:55:46;1.50;;;1.30;;
16822;SDS011;8528;49.976;11.858;2023-07-13T09:58:20;1.67;;;1.30;;
16822;SDS011;8528;49.976;11.858;2023-07-13T10:00:55;1.90;;;1.52;;
16822;SDS011;8528;49.976;11.858;2023-07-13T10:03:35;3.17;;;1.42;;
16822;SDS011;8528;49.976;11.858;2023-07-13T10:06:18;4.05;;;1.30;;
16822;SDS011;8528;49.976;11.858;2023-07-13T10:08:49;2.15;;;1.20;;
16822;SDS011;8528;49.976;11.858;2023-07-13T10:11:27;3.13;;;1.33;;
16822;SDS011;8528;49.976;11.858;2023-07-13T10:13:58;2.08;;;1.40;;
16822;SDS011;8528;49.976;11.858;2023-07-13T10:16:29;2.60;;;1.60;;
16822;SDS011;8528;49.976;11.858;2023-07-13T10:21:55;2.45;;;1.38;;
16822;SDS011;8528;49.976;11.858;2023-07-13T10:24:22;1.85;;;1.30;;
16822;SDS011;8528;49.976;11.858;2023-07-13T10:30:06;1.70;;;1.20;;
16822;SDS011;8528;49.976;11.858;2023-07-13T10:33:01;2.53;;;1.42;;
16822;SDS011;8528;49.976;11.858;2023-07-13T10:35:31;1.65;;;1.15;;
16822;SDS011;8528;49.976;11.858;2023-07-13T10:38:00;1.20;;;1.10;;
16822;SDS011;8528;49.976;11.858;2023-07-13T10:40:48;1.73;;;1.10;;
16822;SDS011;8528;49.976;11.858;2023-07-13T10:46:42;3.92;;;1.10;;
16822;SDS011;8528;49.976;11.858;2023-07-13T10:49:10;2.72;;;1.20;;
16822;SDS011;8528;49.976;11.858;2023-07-13T10:51:39;1.55;;;1.08;;
16822;SDS011;8528;49.976;11.858;2023-07-13T10:56:46;1.63;;;1.08;;
16822;SDS011;8528;49.976;11.858;2023-07-13T10:59:33;1.20;;;1.02;;
16822;SDS011;8528;49.976;11.858;2023-07-13T11:04:39;1.83;;;1.20;;
16822;SDS011;8528;49.976;11.858;2023-07-13T11:07:20;1.15;;;1.00;;
16822;SDS011;8528;49.976;11.858;2023-07-13T11:09:53;2.45;;;1.10;;
16822;SDS011;8528;49.976;11.858;2023-07-13T11:15:29;4.05;;;1.27;;
16822;SDS011;8528;49.976;11.858;2023-07-13T11:18:04;1.55;;;1.00;;
16822;SDS011;8528;49.976;11.858;2023-07-13T11:20:39;1.85;;;1.10;;
16822;SDS011;8528;49.976;11.858;2023-07-13T11:25:39;1.15;;;1.05;;
16822;SDS011;8528;49.976;11.858;2023-07-13T11:33:20;1.92;;;1.02;;
16822;SDS011;8528;49.976;11.858;2023-07-13T11:41:21;3.85;;;1.40;;
16822;SDS011;8528;49.976;11.858;2023-07-13T11:43:55;1.70;;;1.13;;
16822;SDS011;8528;49.976;11.858;2023-07-13T11:46:31;2.03;;;1.15;;
16822;SDS011;8528;49.976;11.858;2023-07-13T11:48:58;1.83;;;1.00;;
16822;SDS011;8528;49.976;11.858;2023-07-13T11:51:31;1.83;;;1.00;;
16822;SDS011;8528;49.976;11.858;2023-07-13T11:54:01;1.70;;;1.10;;
16822;SDS011;8528;49.976;11.858;2023-07-13T11:56:31;2.28;;;1.63;;
16822;SDS011;8528;49.976;11.858;2023-07-13T11:59:03;1.80;;;1.30;;
16822;SDS011;8528;49.976;11.858;2023-07-13T12:01:33;1.70;;;1.20;;
16822;SDS011;8528;49.976;11.858;2023-07-13T12:04:02;1.73;;;0.93;;
16822;SDS011;8528;49.976;11.858;2023-07-13T12:06:36;1.73;;;1.10;;
16822;SDS011;8528;49.976;11.858;2023-07-13T12:09:11;2.03;;;1.20;;
16822;SDS011;8528;49.976;11.858;2023-07-13T12:11:42;1.40;;;0.95;;
16822;SDS011;8528;49.976;11.858;2023-07-13T12:14:16;1.83;;;1.02;;
16822;SDS011;8528;49.976;11.858;2023-07-13T12:16:47;4.40;;;1.25;;
16822;SDS011;8528;49.976;11.858;2023-07-13T12:22:22;1.17;;;1.00;;
16822;SDS011;8528;49.976;11.858;2023-07-13T12:24:50;2.65;;;1.20;;
16822;SDS011;8528;49.976;11.858;2023-07-13T12:30:02;1.05;;;0.95;;
16822;SDS011;8528;49.976;11.858;2023-07-13T12:32:31;1.40;;;1.10;;
16822;SDS011;8528;49.976;11.858;2023-07-13T12:35:13;1.30;;;1.00;;
16822;SDS011;8528;49.976;11.858;2023-07-13T12:37:42;1.55;;;1.00;;
16822;SDS011;8528;49.976;11.858;2023-07-13T12:40:16;1.50;;;1.30;;
16822;SDS011;8528;49.976;11.858;2023-07-13T12:42:49;2.17;;;1.00;;
16822;SDS011;8528;49.976;11.858;2023-07-13T12:45:19;1.85;;;0.90;;
16822;SDS011;8528;49.976;11.858;2023-07-13T12:47:52;1.42;;;0.90;;
16822;SDS011;8528;49.976;11.858;2023-07-13T12:50:22;1.10;;;1.00;;
16822;SDS011;8528;49.976;11.858;2023-07-13T12:52:55;1.92;;;1.08;;
16822;SDS011;8528;49.976;11.858;2023-07-13T12:55:27;1.17;;;0.95;;
16822;SDS011;8528;49.976;11.858;2023-07-13T12:57:58;0.70;;;0.70;;
16822;SDS011;8528;49.976;11.858;2023-07-13T13:00:30;1.92;;;1.05;;
16822;SDS011;8528;49.976;11.858;2023-07-13T13:03:07;1.73;;;1.10;;
16822;SDS011;8528;49.976;11.858;2023-07-13T13:06:02;1.05;;;0.90;;
16822;SDS011;8528;49.976;11.858;2023-07-13T13:08:32;1.25;;;1.00;;
16822;SDS011;8528;49.976;11.858;2023-07-13T13:11:01;2.05;;;1.20;;
16822;SDS011;8528;49.976;11.858;2023-07-13T13:13:28;1.75;;;1.00;;
16822;SDS011;8528;49.976;11.858;2023-07-13T13:15:55;3.70;;;1.40;;
16822;SDS011;8528;49.976;11.858;2023-07-13T13:18:23;1.85;;;0.80;;
16822;SDS011;8528;49.976;11.858;2023-07-13T13:20:50;1.35;;;1.08;;
16822;SDS011;8528;49.976;11.858;2023-07-13T13:23:19;3.03;;;1.10;;
16822;SDS011;8528;49.976;11.858;2023-07-13T13:25:47;2.28;;;0.90;;
16822;SDS011;8528;49.976;11.858;2023-07-13T13:28:16;1.65;;;1.00;;
16822;SDS011;8528;49.976;11.858;2023-07-13T13:30:46;1.20;;;1.10;;
16822;SDS011;8528;49.976;11.858;2023-07-13T13:33:15;2.85;;;1.10;;
16822;SDS011;8528;49.976;11.858;2023-07-13T13:35:44;2.75;;;1.20;;
16822;SDS011;8528;49.976;11.858;2023-07-13T13:38:12;1.87;;;1.10;;
16822;SDS011;8528;49.976;11.858;2023-07-13T13:40:43;2.27;;;1.10;;
16822;SDS011;8528;49.976;11.858;2023-07-13T13:43:21;2.67;;;1.13;;
16822;SDS011;8528;49.976;11.858;2023-07-13T13:45:54;2.17;;;1.40;;
16822;SDS011;8528;49.976;11.858;2023-07-13T13:48:27;2.60;;;1.13;;
16822;SDS011;8528;49.976;11.858;2023-07-13T13:50:58;2.38;;;1.58;;
16822;SDS011;8528;49.976;11.858;2023-07-13T13:53:26;1.88;;;1.20;;
16822;SDS011;8528;49.976;11.858;2023-07-13T13:55:54;7.07;;;4.80;;
16822;SDS011;8528;49.976;11.858;2023-07-13T13:58:21;7.07;;;4.60;;
16822;SDS011;8528;49.976;11.858;2023-07-13T14:00:48;2.25;;;1.40;;
16822;SDS011;8528;49.976;11.858;2023-07-13T14:03:20;2.80;;;1.20;;
16822;SDS011;8528;49.976;11.858;2023-07-13T14:05:48;18.63;;;5.80;;
16822;SDS011;8528;49.976;11.858;2023-07-13T14:08:16;2.70;;;1.50;;
16822;SDS011;8528;49.976;11.858;2023-07-13T14:10:48;2.97;;;1.40;;
16822;SDS011;8528;49.976;11.858;2023-07-13T14:13:21;4.82;;;1.85;;
16822;SDS011;8528;49.976;11.858;2023-07-13T14:15:53;2.60;;;1.30;;
16822;SDS011;8528;49.976;11.858;2023-07-13T14:18:20;4.03;;;1.63;;
16822;SDS011;8528;49.976;11.858;2023-07-13T14:20:48;5.28;;;1.50;;
16822;SDS011;8528;49.976;11.858;2023-07-13T14:23:15;5.32;;;1.63;;
16822;SDS011;8528;49.976;11.858;2023-07-13T14:25:47;1.97;;;1.17;;
16822;SDS011;8528;49.976;11.858;2023-07-13T14:28:18;2.92;;;1.20;;
16822;SDS011;8528;49.976;11.858;2023-07-13T14:30:53;1.40;;;1.25;;
16822;SDS011;8528;49.976;11.858;2023-07-13T14:33:23;1.90;;;1.30;;
16822;SDS011;8528;49.976;11.858;2023-07-13T14:35:50;2.07;;;1.23;;
16822;SDS011;8528;49.976;11.858;2023-07-13T14:38:19;2.40;;;1.77;;
16822;SDS011;8528;49.976;11.858;2023-07-13T14:40:46;3.33;;;1.50;;
16822;SDS011;8528;49.976;11.858;2023-07-13T14:43:14;2.37;;;1.40;;
16822;SDS011;8528;49.976;11.858;2023-07-13T14:45:46;1.63;;;1.40;;
16822;SDS011;8528;49.976;11.858;2023-07-13T14:48:16;2.13;;;1.50;;
16822;SDS011;8528;49.976;11.858;2023-07-13T14:50:55;3.23;;;1.33;;
16822;SDS011;8528;49.976;11.858;2023-07-13T14:53:25;1.93;;;1.30;;
16822;SDS011;8528;49.976;11.858;2023-07-13T14:55:54;2.80;;;1.30;;
16822;SDS011;8528;49.976;11.858;2023-07-13T14:58:21;2.00;;;1.40;;
16822;SDS011;8528;49.976;11.858;2023-07-13T15:00:48;3.03;;;1.30;;
16822;SDS011;8528;49.976;11.858;2023-07-13T15:03:17;1.80;;;1.20;;
16822;SDS011;8528;49.976;11.858;2023-07-13T15:05:50;1.77;;;1.20;;
16822;SDS011;8528;49.976;11.858;2023-07-13T15:08:19;2.40;;;1.57;;
16822;SDS011;8528;49.976;11.858;2023-07-13T15:10:46;2.57;;;1.23;;
16822;SDS011;8528;49.976;11.858;2023-07-13T15:15:42;3.43;;;1.70;;
16822;SDS011;8528;49.976;11.858;2023-07-13T15:18:15;2.33;;;1.40;;
16822;SDS011;8528;49.976;11.858;2023-07-13T15:20:45;1.97;;;1.53;;
16822;SDS011;8528;49.976;11.858;2023-07-13T15:23:14;1.97;;;1.50;;
16822;SDS011;8528;49.976;11.858;2023-07-13T15:25:42;3.87;;;1.60;;
16822;SDS011;8528;49.976;11.858;2023-07-13T15:28:10;4.13;;;1.60;;
16822;SDS011;8528;49.976;11.858;2023-07-13T15:30:41;2.47;;;1.50;;
16822;SDS011;8528;49.976;11.858;2023-07-13T15:33:31;2.77;;;1.40;;
16822;SDS011;8528;49.976;11.858;2023-07-13T15:35:57;3.60;;;1.70;;
16822;SDS011;8528;49.976;11.858;2023-07-13T15:38:27;5.00;;;1.70;;
16822;SDS011;8528;49.976;11.858;2023-07-13T15:40:55;3.27;;;1.40;;
16822;SDS011;8528;49.976;11.858;2023-07-13T15:43:23;2.70;;;1.63;;
16822;SDS011;8528;49.976;11.858;2023-07-13T15:48:23;4.53;;;1.60;;
16822;SDS011;8528;49.976;11.858;2023-07-13T15:50:51;1.47;;;1.30;;
16822;SDS011;8528;49.976;11.858;2023-07-13T15:53:33;3.20;;;1.50;;
16822;SDS011;8528;49.976;11.858;2023-07-13T15:56:02;2.70;;;1.40;;
16822;SDS011;8528;49.976;11.858;2023-07-13T15:58:44;3.47;;;1.57;;
16822;SDS011;8528;49.976;11.858;2023-07-13T16:01:12;2.03;;;1.30;;
16822;SDS011;8528;49.976;11.858;2023-07-13T16:03:40;1.57;;;1.30;;
16822;SDS011;8528;49.976;11.858;2023-07-13T16:06:20;5.90;;;1.40;;